createdAt,value
2023-03-29T00:00:20.368Z,12.466667
2023-03-29T00:05:22.150Z,11.000000
2023-03-29T00:10:24.515Z,11.800000
2023-03-29T00:15:26.284Z,15.000000
2023-03-29T00:20:28.337Z,15.000000
2023-03-29T00:25:30.359Z,15.000000
2023-03-29T00:30:32.613Z,14.466667
2023-03-29T00:35:34.512Z,13.000000
2023-03-29T00:40:16.512Z,13.800000
2023-03-29T00:45:18.378Z,16.000000
2023-03-29T00:50:21.000Z,14.933333
2023-03-29T00:55:22.739Z,12.000000
2023-03-29T01:00:24.838Z,12.400000
2023-03-29T01:05:26.731Z,14.000000
2023-03-29T01:10:28.464Z,14.400000
2023-03-29T01:15:30.851Z,16.000000
2023-03-29T01:20:32.723Z,14.666667
2023-03-29T01:25:34.601Z,11.000000
2023-03-29T01:30:16.505Z,11.000000
2023-03-29T01:35:18.629Z,11.000000
2023-03-29T01:40:20.772Z,11.533333
2023-03-29T01:45:22.534Z,13.000000
2023-03-29T01:50:24.714Z,13.200000
2023-03-29T01:55:26.434Z,14.000000
2023-03-29T02:00:28.514Z,13.400000
2023-03-29T02:05:30.349Z,11.000000
2023-03-29T02:10:32.660Z,11.800000
2023-03-29T02:15:34.673Z,14.000000
2023-03-29T02:20:16.660Z,12.666667
2023-03-29T02:25:18.758Z,9.000000
2023-03-29T02:30:20.895Z,10.066667
2023-03-29T02:35:22.719Z,13.000000
2023-03-29T02:40:24.670Z,13.400000
2023-03-29T02:45:26.507Z,15.000000
2023-03-29T02:50:28.365Z,15.200000
2023-03-29T02:55:30.332Z,16.000000
2023-03-29T03:00:32.943Z,15.466667
2023-03-29T03:05:34.902Z,14.000000
2023-03-29T03:10:16.773Z,13.733333
2023-03-29T03:15:18.672Z,13.000000
2023-03-29T03:20:20.826Z,13.000000
2023-03-29T03:25:22.740Z,13.000000
2023-03-29T03:30:24.637Z,12.600000
2023-03-29T03:35:26.462Z,11.000000
2023-03-29T03:40:28.538Z,11.000000
2023-03-29T03:45:30.764Z,11.000000
2023-03-29T03:50:32.845Z,12.333333
2023-03-29T03:55:34.934Z,16.000000
2023-03-29T04:00:17.121Z,15.200000
2023-03-29T04:05:19.443Z,13.000000
2023-03-29T04:10:21.365Z,12.733333
2023-03-29T04:15:23.443Z,12.000000
2023-03-29T04:20:25.200Z,11.800000
2023-03-29T04:25:27.272Z,11.000000
2023-03-29T04:30:29.212Z,11.800000
2023-03-29T04:35:31.277Z,14.000000
2023-03-29T04:40:33.288Z,14.533333
2023-03-29T04:45:35.110Z,16.000000
2023-03-29T04:50:16.813Z,15.200000
2023-03-29T04:55:19.070Z,13.000000
2023-03-29T05:00:20.994Z,12.733333
2023-03-29T05:05:22.999Z,12.000000
2023-03-29T05:10:24.745Z,12.200000
2023-03-29T05:15:26.886Z,13.000000
2023-03-29T05:20:29.085Z,13.200000
2023-03-29T05:25:31.357Z,14.000000
2023-03-29T05:30:33.313Z,14.533333
2023-03-29T05:35:35.341Z,16.000000
2023-03-29T05:40:17.352Z,15.200000
2023-03-29T05:45:19.675Z,13.000000
2023-03-29T05:50:22.133Z,13.642857
2023-03-29T05:55:24.116Z,16.000000
2023-03-29T06:00:26.369Z,16.000000
2023-03-29T06:05:28.746Z,16.000000
2023-03-29T06:10:30.619Z,16.000000
2023-03-29T06:15:32.513Z,16.000000
2023-03-29T06:20:35.127Z,15.733333
2023-03-29T06:25:16.656Z,15.000000
2023-03-29T06:30:18.911Z,14.466667
2023-03-29T06:35:20.674Z,13.000000
2023-03-29T06:40:23.350Z,11.714286
2023-03-29T06:45:26.781Z,7.000000
2023-03-29T06:50:26.757Z,7.600000
2023-03-29T06:55:28.495Z,10.000000
2023-03-29T07:00:30.259Z,9.733333
2023-03-29T07:05:32.292Z,9.000000
2023-03-29T07:10:34.325Z,8.466667
2023-03-29T07:15:16.144Z,7.000000
2023-03-29T07:20:17.846Z,7.533333
2023-03-29T07:25:19.723Z,9.000000
2023-03-29T07:30:21.800Z,8.733333
2023-03-29T07:35:23.666Z,8.000000
2023-03-29T07:40:25.786Z,6.800000
2023-03-29T07:45:28.572Z,2.000000
2023-03-29T07:50:29.654Z,3.866667
2023-03-29T07:55:31.626Z,9.000000
2023-03-29T08:00:33.645Z,8.200000
2023-03-29T08:05:41.474Z,6.000000
2023-03-29T08:10:17.461Z,7.066667
2023-03-29T08:15:19.518Z,10.000000
2023-03-29T08:20:21.356Z,10.800000
2023-03-29T08:25:23.188Z,13.000000
2023-03-29T08:30:25.189Z,12.000000
2023-03-29T08:35:27.084Z,8.000000
2023-03-29T08:40:28.938Z,7.733333
2023-03-29T08:45:30.860Z,7.000000
2023-03-29T08:50:32.870Z,6.733333
2023-03-29T08:55:35.553Z,6.000000
2023-03-29T09:00:16.735Z,7.066667
2023-03-29T09:05:18.823Z,10.000000
2023-03-29T09:10:20.792Z,11.066667
2023-03-29T09:15:22.894Z,14.000000
2023-03-29T09:20:24.890Z,13.600000
2023-03-29T09:25:27.036Z,12.000000
2023-03-29T09:30:28.837Z,12.800000
2023-03-29T09:35:31.272Z,15.000000
2023-03-29T09:40:33.414Z,13.666667
2023-03-29T09:45:35.055Z,10.000000
2023-03-29T09:50:29.561Z,10.800000
2023-03-29T09:55:18.495Z,13.000000
2023-03-29T10:00:20.594Z,12.200000
2023-03-29T10:05:22.593Z,10.000000
2023-03-29T10:10:24.443Z,10.000000
2023-03-29T10:15:29.698Z,10.000000
2023-03-29T10:20:28.400Z,10.000000
2023-03-29T10:25:30.393Z,10.000000
2023-03-29T10:30:32.372Z,9.466667
2023-03-29T10:35:34.507Z,8.000000
2023-03-29T10:40:16.016Z,8.800000
2023-03-29T10:45:18.031Z,11.000000
2023-03-29T10:50:19.969Z,9.666667
2023-03-29T10:55:21.940Z,6.000000
2023-03-29T11:00:23.835Z,6.214286
2023-03-29T11:05:25.844Z,7.000000
2023-03-29T11:10:28.026Z,7.600000
2023-03-29T11:15:29.841Z,10.000000
2023-03-29T11:20:32.140Z,8.133333
2023-03-29T11:25:33.770Z,3.000000
2023-03-29T11:30:35.575Z,4.600000
2023-03-29T11:35:17.187Z,9.000000
2023-03-29T11:40:19.364Z,9.266667
2023-03-29T11:45:21.756Z,10.000000
2023-03-29T11:50:23.653Z,9.357143
2023-03-29T11:55:26.230Z,7.000000
2023-03-29T12:00:28.097Z,6.800000
2023-03-29T12:05:30.134Z,6.000000
2023-03-29T12:10:33.674Z,6.533333
2023-03-29T12:15:35.250Z,8.000000
2023-03-29T12:20:16.412Z,7.733333
2023-03-29T12:25:20.171Z,7.000000
2023-03-29T12:30:21.266Z,7.533333
2023-03-29T12:35:23.879Z,9.000000
2023-03-29T12:40:26.260Z,9.000000
2023-03-29T12:45:28.621Z,9.000000
2023-03-29T12:50:31.147Z,7.933333
2023-03-29T12:55:33.307Z,5.000000
2023-03-29T13:00:35.251Z,5.000000
2023-03-29T13:05:17.444Z,5.000000
2023-03-29T13:10:19.339Z,7.133333
2023-03-29T13:15:21.628Z,13.000000
2023-03-29T13:20:23.753Z,12.357143
2023-03-29T13:25:25.677Z,10.000000
2023-03-29T13:30:27.507Z,9.400000
2023-03-29T13:35:29.389Z,7.000000
2023-03-29T13:40:31.476Z,8.066667
2023-03-29T13:45:33.398Z,11.000000
2023-03-29T13:50:35.427Z,10.200000
2023-03-29T13:55:17.075Z,8.000000
2023-03-29T14:00:19.703Z,9.066667
2023-03-29T14:05:21.744Z,12.000000
2023-03-29T14:10:23.947Z,11.785714
2023-03-29T14:15:25.702Z,11.000000
2023-03-29T14:20:28.595Z,10.200000
2023-03-29T14:25:30.698Z,7.000000
2023-03-29T14:30:32.449Z,8.066667
2023-03-29T14:35:35.001Z,11.000000
2023-03-29T14:40:16.145Z,10.200000
2023-03-29T14:45:18.145Z,8.000000
2023-03-29T14:50:19.788Z,8.266667
2023-03-29T14:55:21.781Z,9.000000
2023-03-29T15:00:24.329Z,8.357143
2023-03-29T15:05:26.323Z,6.000000
2023-03-29T15:10:28.367Z,7.200000
2023-03-29T15:15:30.553Z,12.000000
2023-03-29T15:20:32.640Z,11.200000
2023-03-29T15:25:35.367Z,9.000000
2023-03-29T15:30:16.333Z,7.933333
2023-03-29T15:35:18.345Z,5.000000
2023-03-29T15:40:20.606Z,7.133333
2023-03-29T15:45:22.543Z,13.000000
2023-03-29T15:50:24.533Z,12.000000
2023-03-29T15:55:26.871Z,8.000000
2023-03-29T16:00:28.437Z,8.200000
2023-03-29T16:05:30.803Z,9.000000
2023-03-29T16:10:32.651Z,9.533333
2023-03-29T16:15:34.839Z,11.000000
2023-03-29T16:20:16.233Z,12.333333
2023-03-29T16:25:18.185Z,16.000000
2023-03-29T16:30:19.914Z,13.866667
2023-03-29T16:35:21.845Z,8.000000
2023-03-29T16:40:23.979Z,8.000000
2023-03-29T16:45:26.038Z,8.000000
2023-03-29T16:50:27.861Z,8.200000
2023-03-29T16:55:29.806Z,9.000000
2023-03-29T17:00:31.921Z,8.733333
2023-03-29T17:05:34.321Z,8.000000
2023-03-29T17:10:36.119Z,8.266667
2023-03-29T17:15:17.900Z,9.000000
2023-03-29T17:20:20.554Z,8.733333
2023-03-29T17:25:22.373Z,8.000000
2023-03-29T17:30:25.557Z,8.400000
2023-03-29T17:35:26.194Z,10.000000
2023-03-29T17:40:28.532Z,10.200000
2023-03-29T17:45:30.523Z,11.000000
2023-03-29T17:50:32.487Z,10.733333
2023-03-29T17:55:35.507Z,10.000000
2023-03-29T18:00:16.207Z,8.933333
2023-03-29T18:05:18.179Z,6.000000
2023-03-29T18:10:20.411Z,6.266667
2023-03-29T18:15:22.559Z,7.000000
2023-03-29T18:20:24.442Z,7.400000
2023-03-29T18:25:26.372Z,9.000000
2023-03-29T18:30:28.365Z,8.800000
2023-03-29T18:35:30.311Z,8.000000
2023-03-29T18:40:32.361Z,9.600000
2023-03-29T18:45:34.767Z,14.000000
2023-03-29T18:50:15.946Z,12.933333
2023-03-29T18:55:18.236Z,10.000000
2023-03-29T19:00:20.014Z,11.066667
2023-03-29T19:05:22.027Z,14.000000
2023-03-29T19:10:23.976Z,12.600000
2023-03-29T19:15:25.845Z,7.000000
2023-03-29T19:20:27.898Z,7.000000
2023-03-29T19:25:29.980Z,7.000000
2023-03-29T19:30:32.002Z,7.000000
2023-03-29T19:35:34.187Z,7.000000
2023-03-29T19:40:15.791Z,7.266667
2023-03-29T19:45:17.742Z,8.000000
2023-03-29T19:50:19.782Z,7.733333
2023-03-29T19:55:21.956Z,7.000000
2023-03-29T20:00:24.451Z,7.214286
2023-03-29T20:05:25.919Z,8.000000
2023-03-29T20:10:27.657Z,8.200000
2023-03-29T20:15:29.717Z,9.000000
2023-03-29T20:20:31.401Z,9.000000
2023-03-29T20:25:33.561Z,9.000000
2023-03-29T20:30:35.583Z,10.600000
2023-03-29T20:35:17.495Z,15.000000
2023-03-29T20:40:19.445Z,13.400000
2023-03-29T20:45:22.359Z,9.000000
2023-03-29T20:50:23.300Z,8.571429
2023-03-29T20:55:25.277Z,7.000000
2023-03-29T21:00:27.638Z,6.800000
2023-03-29T21:05:29.644Z,6.000000
2023-03-29T21:10:31.737Z,6.266667
2023-03-29T21:15:33.532Z,7.000000
2023-03-29T21:20:35.443Z,7.266667
2023-03-29T21:25:17.043Z,8.000000
2023-03-29T21:30:19.172Z,7.466667
2023-03-29T21:35:20.844Z,6.000000
2023-03-29T21:40:22.874Z,6.428571
2023-03-29T21:45:25.178Z,8.000000
2023-03-29T21:50:27.048Z,8.000000
2023-03-29T21:55:29.318Z,8.000000
2023-03-29T22:00:31.668Z,7.733333
2023-03-29T22:05:33.618Z,7.000000
2023-03-29T22:10:35.825Z,7.800000
2023-03-29T22:15:17.792Z,10.000000
2023-03-29T22:20:19.846Z,10.533333
2023-03-29T22:25:21.569Z,12.000000
2023-03-29T22:30:23.867Z,11.357143
2023-03-29T22:35:25.692Z,9.000000
2023-03-29T22:40:27.581Z,11.000000
2023-03-29T22:45:29.486Z,19.000000
2023-03-29T22:50:31.403Z,19.000000
2023-03-29T22:55:33.383Z,19.000000
2023-03-29T23:00:35.201Z,17.400000
2023-03-29T23:05:16.925Z,13.000000
2023-03-29T23:10:18.898Z,14.066667
2023-03-29T23:15:20.775Z,17.000000
2023-03-29T23:20:22.848Z,16.357143
2023-03-29T23:25:25.164Z,14.000000
2023-03-29T23:30:27.556Z,14.600000
2023-03-29T23:35:29.567Z,17.000000
2023-03-29T23:40:31.229Z,15.933333
2023-03-29T23:45:33.130Z,13.000000
2023-03-29T23:50:35.317Z,13.533333
2023-03-29T23:55:17.235Z,15.000000
